Startpagina
METAR-TAF:

METAR-TAF

Vliegvelden :

Tarapoto, Peru

breedte: 06-27S, lengte: 076-23W, hoogte: 281 m

Actueel weer

Dit bericht is 8 uur en het 25 minuten geleden gemaakt, om 03:00 UTC
Wind 3 kt uit het noordwesten
Temperatuur 25°C
Vochtigheid 89%
Druk 1013 hPa
Zicht 10 km of meer
Weinig wolken op 2500 ft

METAR: SPST 230300Z 32003KT 9999 FEW025 25/23 Q1013 RMK BIRD HAZARD RWY 17/35 PP000

Tijdstip: 06:25 (11:25 UTC)

Verwachting

Dit bericht is 12 uur en het 25 minuten geleden gemaakt, om 23:00 UTC
Verwachting geldig van 23 om 00 UTC tot 23 om 24 UTC
Wind 2 kt uit variabele richting
Zicht 10 km of meer
Verspreide wolken op 2500 ft
Tijdelijke
van 23 om 11 UTC tot 23 om 13 UTC
Zicht: 6000 m
Verspreide wolken op 800 ft
Gebroken wolken op 6000 ft

TAF: SPST 222300Z 2300/2324 VRB02KT 9999 SCT025 TX33/2319Z TN20/2311Z TEMPO 2311/2313 6000 SCT008 BKN060

Waarnemingen en weersverwachtingen van meer dan 4000 vliegvelden (METAR en TAF).

De beschikbare stations zijn de gele en rode punten op de kaart.

Ga met uw muis naar het station om de naam te zien.

Klik dan om waarnemingen en weersverwachtingen te zien.

kaart wijzigen: klik op de groene knoppen met een zwart kruis om in te zoomen, op de groene knop met een streepje om uit te zoomen of op de groene pijlen voor aangrenzende kaarten.


METAR-TAF: